sensor_id;sensor_type;location;lat;lon;timestamp;temperature;humidity
8886;DHT22;4479;51.162;13.906;2023-02-13T02:05:31;9.40;99.90
8886;DHT22;4479;51.162;13.906;2023-02-13T02:15:37;9.40;99.90
8886;DHT22;4479;51.162;13.906;2023-02-13T02:36:46;9.40;99.90
8886;DHT22;4479;51.162;13.906;2023-02-13T02:47:10;9.40;99.90
8886;DHT22;4479;51.162;13.906;2023-02-13T02:57:44;9.40;99.90
8886;DHT22;4479;51.162;13.906;2023-02-13T03:18:10;9.40;99.90
8886;DHT22;4479;51.162;13.906;2023-02-13T03:28:34;9.40;99.90
8886;DHT22;4479;51.162;13.906;2023-02-13T03:38:58;9.40;99.90
8886;DHT22;4479;51.162;13.906;2023-02-13T03:49:11;9.40;99.90
8886;DHT22;4479;51.162;13.906;2023-02-13T03:59:37;9.30;99.90
8886;DHT22;4479;51.162;13.906;2023-02-13T04:09:40;9.40;99.90
8886;DHT22;4479;51.162;13.906;2023-02-13T04:19:44;9.40;99.90
8886;DHT22;4479;51.162;13.906;2023-02-13T04:39:50;9.40;99.90
8886;DHT22;4479;51.162;13.906;2023-02-13T05:40:10;9.30;99.90
8886;DHT22;4479;51.162;13.906;2023-02-13T07:10:40;9.20;99.90
8886;DHT22;4479;51.162;13.906;2023-02-13T07:20:44;9.20;99.90
8886;DHT22;4479;51.162;13.906;2023-02-13T08:00:55;9.30;99.90
8886;DHT22;4479;51.162;13.906;2023-02-13T08:12:02;9.40;99.90
8886;DHT22;4479;51.162;13.906;2023-02-13T08:54:52;9.40;99.90
8886;DHT22;4479;51.162;13.906;2023-02-13T09:04:55;9.50;99.90
8886;DHT22;4479;51.162;13.906;2023-02-13T09:25:01;9.40;99.90
8886;DHT22;4479;51.162;13.906;2023-02-13T09:45:11;8.20;99.90
8886;DHT22;4479;51.162;13.906;2023-02-13T09:55:16;9.50;99.90
8886;DHT22;4479;51.162;13.906;2023-02-13T10:05:39;9.50;99.90
8886;DHT22;4479;51.162;13.906;2023-02-13T10:15:50;9.60;99.90
8886;DHT22;4479;51.162;13.906;2023-02-13T10:25:57;9.90;99.90
8886;DHT22;4479;51.162;13.906;2023-02-13T10:36:04;10.20;99.90
8886;DHT22;4479;51.162;13.906;2023-02-13T10:46:19;10.50;99.90
8886;DHT22;4479;51.162;13.906;2023-02-13T10:56:26;10.70;99.90
8886;DHT22;4479;51.162;13.906;2023-02-13T11:06:34;11.00;99.90
8886;DHT22;4479;51.162;13.906;2023-02-13T11:16:40;11.20;99.90
8886;DHT22;4479;51.162;13.906;2023-02-13T11:26:57;11.50;99.90
8886;DHT22;4479;51.162;13.906;2023-02-13T11:37:14;11.50;99.90
8886;DHT22;4479;51.162;13.906;2023-02-13T11:47:35;11.40;99.90
8886;DHT22;4479;51.162;13.906;2023-02-13T12:07:43;11.40;99.90
8886;DHT22;4479;51.162;13.906;2023-02-13T12:17:51;11.40;99.90
8886;DHT22;4479;51.162;13.906;2023-02-13T12:28:10;11.40;99.90
8886;DHT22;4479;51.162;13.906;2023-02-13T12:38:23;11.40;99.90
8886;DHT22;4479;51.162;13.906;2023-02-13T12:48:39;11.40;99.90
8886;DHT22;4479;51.162;13.906;2023-02-13T12:58:56;11.40;99.90
8886;DHT22;4479;51.162;13.906;2023-02-13T13:19:48;11.50;99.90
8886;DHT22;4479;51.162;13.906;2023-02-13T13:29:57;11.40;99.90
8886;DHT22;4479;51.162;13.906;2023-02-13T13:40:05;11.40;99.90
8886;DHT22;4479;51.162;13.906;2023-02-13T13:50:22;11.40;99.90
8886;DHT22;4479;51.162;13.906;2023-02-13T14:00:27;11.50;99.90
8886;DHT22;4479;51.162;13.906;2023-02-13T14:11:01;11.40;99.90
8886;DHT22;4479;51.162;13.906;2023-02-13T14:21:05;11.30;99.90
8886;DHT22;4479;51.162;13.906;2023-02-13T14:31:18;11.30;99.90
8886;DHT22;4479;51.162;13.906;2023-02-13T14:41:43;11.20;99.90
8886;DHT22;4479;51.162;13.906;2023-02-13T14:51:50;11.20;99.90
8886;DHT22;4479;51.162;13.906;2023-02-13T15:01:58;14.30;99.90
8886;DHT22;4479;51.162;13.906;2023-02-13T15:12:02;11.00;99.90
8886;DHT22;4479;51.162;13.906;2023-02-13T15:22:05;10.80;99.90
8886;DHT22;4479;51.162;13.906;2023-02-13T15:32:18;10.70;99.90
8886;DHT22;4479;51.162;13.906;2023-02-13T15:52:30;10.40;99.90
8886;DHT22;4479;51.162;13.906;2023-02-13T16:02:39;10.20;99.90
8886;DHT22;4479;51.162;13.906;2023-02-13T16:12:47;10.10;99.90
8886;DHT22;4479;51.162;13.906;2023-02-13T16:22:51;10.10;99.90
8886;DHT22;4479;51.162;13.906;2023-02-13T16:33:20;10.00;99.90
8886;DHT22;4479;51.162;13.906;2023-02-13T16:43:34;9.90;99.90
8886;DHT22;4479;51.162;13.906;2023-02-13T16:53:45;9.80;99.90
8886;DHT22;4479;51.162;13.906;2023-02-13T17:13:51;9.70;99.90
8886;DHT22;4479;51.162;13.906;2023-02-13T17:33:57;9.60;99.90
8886;DHT22;4479;51.162;13.906;2023-02-13T17:54:03;9.40;99.90
8886;DHT22;4479;51.162;13.906;2023-02-13T19:06:47;9.00;99.90
8886;DHT22;4479;51.162;13.906;2023-02-13T19:52:23;8.90;99.90
8886;DHT22;4479;51.162;13.906;2023-02-13T21:12:48;8.70;99.90
8886;DHT22;4479;51.162;13.906;2023-02-13T21:32:54;8.60;99.90
8886;DHT22;4479;51.162;13.906;2023-02-13T22:53:17;8.50;99.90
8886;DHT22;4479;51.162;13.906;2023-02-13T23:53:35;8.40;99.90
